Terminal Aerodrome Forecast
Issued by NWS

Home | Current Version | Previous Version | Text Only | Print | Product List | Glossary On
Versions: 1 2 3 4 5 6 7 8 9 10 11 12 13 14 15 16
000
FTUS42 TJSJ 300527
TAFJBQ
TAF
TJBQ 300527Z 3006/3106 09010KT P6SM FEW025
     FM301200 10008KT P6SM FEW025
     FM301630 08015G25KT P6SM VCTS BKN025CB BKN040
     FM302130 09010KT P6SM VCSH SCT025 BKN040
      AMD NOT SKED TIL 301300=

USA.gov is the U.S. government's official web portal to all federal, state and local government web resources and services.